sensor_id;sensor_type;location;lat;lon;timestamp;temperature;humidity
59162;DHT22;44942;48.936;8.260;2022-10-31T00:02:05;22.20;61.10
59162;DHT22;44942;48.936;8.260;2022-10-31T00:07:05;22.20;61.20
59162;DHT22;44942;48.936;8.260;2022-10-31T00:12:06;22.20;61.10
59162;DHT22;44942;48.936;8.260;2022-10-31T00:17:06;22.20;61.10
59162;DHT22;44942;48.936;8.260;2022-10-31T00:22:07;22.10;61.00
59162;DHT22;44942;48.936;8.260;2022-10-31T00:27:07;22.10;61.50
59162;DHT22;44942;48.936;8.260;2022-10-31T00:32:08;22.20;61.00
59162;DHT22;44942;48.936;8.260;2022-10-31T00:37:08;22.20;61.10
59162;DHT22;44942;48.936;8.260;2022-10-31T00:42:09;22.20;61.10
59162;DHT22;44942;48.936;8.260;2022-10-31T00:47:09;22.10;61.00
59162;DHT22;44942;48.936;8.260;2022-10-31T00:52:10;22.20;61.10
59162;DHT22;44942;48.936;8.260;2022-10-31T00:57:11;22.10;61.00
59162;DHT22;44942;48.936;8.260;2022-10-31T01:02:11;22.10;61.00
59162;DHT22;44942;48.936;8.260;2022-10-31T01:07:12;22.10;61.10
59162;DHT22;44942;48.936;8.260;2022-10-31T01:12:14;22.10;60.90
59162;DHT22;44942;48.936;8.260;2022-10-31T01:17:14;22.10;61.00
59162;DHT22;44942;48.936;8.260;2022-10-31T01:22:15;22.10;60.90
59162;DHT22;44942;48.936;8.260;2022-10-31T01:27:16;22.10;60.90
59162;DHT22;44942;48.936;8.260;2022-10-31T01:32:16;22.10;60.90
59162;DHT22;44942;48.936;8.260;2022-10-31T01:37:17;22.10;60.80
59162;DHT22;44942;48.936;8.260;2022-10-31T01:42:22;22.10;60.90
59162;DHT22;44942;48.936;8.260;2022-10-31T01:47:40;22.10;60.90
59162;DHT22;44942;48.936;8.260;2022-10-31T01:52:45;22.10;60.80
59162;DHT22;44942;48.936;8.260;2022-10-31T01:57:51;22.00;60.70
59162;DHT22;44942;48.936;8.260;2022-10-31T02:02:52;22.00;60.70
59162;DHT22;44942;48.936;8.260;2022-10-31T02:13:05;22.00;60.50
59162;DHT22;44942;48.936;8.260;2022-10-31T02:18:07;22.00;61.30
59162;DHT22;44942;48.936;8.260;2022-10-31T02:23:32;22.00;60.50
59162;DHT22;44942;48.936;8.260;2022-10-31T02:39:24;22.00;60.40
59162;DHT22;44942;48.936;8.260;2022-10-31T02:44:53;22.00;60.40
59162;DHT22;44942;48.936;8.260;2022-10-31T02:50:13;22.00;60.40
59162;DHT22;44942;48.936;8.260;2022-10-31T03:00:30;22.00;60.40
59162;DHT22;44942;48.936;8.260;2022-10-31T03:06:54;22.00;60.40
59162;DHT22;44942;48.936;8.260;2022-10-31T03:11:26;22.00;60.30
59162;DHT22;44942;48.936;8.260;2022-10-31T03:16:51;21.90;60.30
59162;DHT22;44942;48.936;8.260;2022-10-31T03:22:04;21.90;60.20
59162;DHT22;44942;48.936;8.260;2022-10-31T03:27:09;21.90;60.20
59162;DHT22;44942;48.936;8.260;2022-10-31T03:32:45;21.90;60.20
59162;DHT22;44942;48.936;8.260;2022-10-31T03:37:44;21.90;60.10
59162;DHT22;44942;48.936;8.260;2022-10-31T03:42:51;21.90;60.10
59162;DHT22;44942;48.936;8.260;2022-10-31T03:47:54;21.90;60.10
59162;DHT22;44942;48.936;8.260;2022-10-31T03:53:45;21.90;60.10
59162;DHT22;44942;48.936;8.260;2022-10-31T03:58:47;21.90;60.10
59162;DHT22;44942;48.936;8.260;2022-10-31T04:03:49;21.90;60.00
59162;DHT22;44942;48.936;8.260;2022-10-31T04:08:56;21.90;60.00
59162;DHT22;44942;48.936;8.260;2022-10-31T04:13:58;21.90;60.00
59162;DHT22;44942;48.936;8.260;2022-10-31T04:19:00;21.90;60.00
59162;DHT22;44942;48.936;8.260;2022-10-31T04:24:00;21.90;60.00
59162;DHT22;44942;48.936;8.260;2022-10-31T04:29:01;21.90;59.90
59162;DHT22;44942;48.936;8.260;2022-10-31T04:34:02;21.80;59.90
59162;DHT22;44942;48.936;8.260;2022-10-31T04:39:02;21.90;59.90
59162;DHT22;44942;48.936;8.260;2022-10-31T04:44:03;21.80;59.80
59162;DHT22;44942;48.936;8.260;2022-10-31T04:49:03;21.80;59.70
59162;DHT22;44942;48.936;8.260;2022-10-31T04:54:04;21.90;59.80
59162;DHT22;44942;48.936;8.260;2022-10-31T04:59:05;21.80;59.70
59162;DHT22;44942;48.936;8.260;2022-10-31T05:04:05;21.80;59.70
59162;DHT22;44942;48.936;8.260;2022-10-31T05:09:06;21.80;59.60
59162;DHT22;44942;48.936;8.260;2022-10-31T05:14:06;21.80;59.60
59162;DHT22;44942;48.936;8.260;2022-10-31T05:19:07;21.80;59.60
59162;DHT22;44942;48.936;8.260;2022-10-31T05:24:08;21.80;59.60
59162;DHT22;44942;48.936;8.260;2022-10-31T05:29:08;21.70;59.40
59162;DHT22;44942;48.936;8.260;2022-10-31T05:34:09;21.70;59.40
59162;DHT22;44942;48.936;8.260;2022-10-31T05:39:09;21.70;59.30
59162;DHT22;44942;48.936;8.260;2022-10-31T05:44:10;21.70;59.40
59162;DHT22;44942;48.936;8.260;2022-10-31T05:49:11;21.70;59.40
59162;DHT22;44942;48.936;8.260;2022-10-31T05:54:11;21.70;59.40
59162;DHT22;44942;48.936;8.260;2022-10-31T05:59:12;21.70;59.30
59162;DHT22;44942;48.936;8.260;2022-10-31T06:04:12;21.70;59.30
59162;DHT22;44942;48.936;8.260;2022-10-31T06:09:13;21.70;59.20
59162;DHT22;44942;48.936;8.260;2022-10-31T06:14:13;21.70;59.40
59162;DHT22;44942;48.936;8.260;2022-10-31T06:19:14;21.70;59.40
59162;DHT22;44942;48.936;8.260;2022-10-31T06:24:15;21.70;59.50
59162;DHT22;44942;48.936;8.260;2022-10-31T06:29:15;21.70;59.60
59162;DHT22;44942;48.936;8.260;2022-10-31T06:34:16;21.70;59.50
59162;DHT22;44942;48.936;8.260;2022-10-31T06:39:16;21.70;59.50
59162;DHT22;44942;48.936;8.260;2022-10-31T06:44:17;21.70;59.50
59162;DHT22;44942;48.936;8.260;2022-10-31T06:49:17;21.80;59.50
59162;DHT22;44942;48.936;8.260;2022-10-31T06:54:18;21.70;59.20
59162;DHT22;44942;48.936;8.260;2022-10-31T06:59:18;21.60;58.90
59162;DHT22;44942;48.936;8.260;2022-10-31T07:04:20;21.60;58.80
59162;DHT22;44942;48.936;8.260;2022-10-31T07:09:21;21.50;58.70
59162;DHT22;44942;48.936;8.260;2022-10-31T07:14:21;21.50;58.70
59162;DHT22;44942;48.936;8.260;2022-10-31T07:19:22;21.50;58.70
59162;DHT22;44942;48.936;8.260;2022-10-31T07:24:22;21.40;58.70
59162;DHT22;44942;48.936;8.260;2022-10-31T07:29:24;21.40;58.70
59162;DHT22;44942;48.936;8.260;2022-10-31T07:34:24;21.40;58.60
59162;DHT22;44942;48.936;8.260;2022-10-31T07:39:25;21.40;58.70
59162;DHT22;44942;48.936;8.260;2022-10-31T07:44:25;21.30;58.70
59162;DHT22;44942;48.936;8.260;2022-10-31T07:49:26;21.30;58.70
59162;DHT22;44942;48.936;8.260;2022-10-31T07:54:27;21.30;58.80
59162;DHT22;44942;48.936;8.260;2022-10-31T07:59:28;21.30;58.80
59162;DHT22;44942;48.936;8.260;2022-10-31T08:04:28;21.30;58.90
59162;DHT22;44942;48.936;8.260;2022-10-31T08:09:29;21.30;58.90
59162;DHT22;44942;48.936;8.260;2022-10-31T08:14:29;21.30;59.00
59162;DHT22;44942;48.936;8.260;2022-10-31T08:19:30;21.20;59.00
59162;DHT22;44942;48.936;8.260;2022-10-31T08:24:30;21.20;59.00
59162;DHT22;44942;48.936;8.260;2022-10-31T08:29:31;21.20;59.10
59162;DHT22;44942;48.936;8.260;2022-10-31T08:34:31;21.20;59.10
59162;DHT22;44942;48.936;8.260;2022-10-31T08:39:32;21.20;59.90
59162;DHT22;44942;48.936;8.260;2022-10-31T08:44:32;21.20;59.20
59162;DHT22;44942;48.936;8.260;2022-10-31T08:49:33;21.20;59.30
59162;DHT22;44942;48.936;8.260;2022-10-31T08:54:34;21.20;59.30
59162;DHT22;44942;48.936;8.260;2022-10-31T08:59:34;21.20;59.40
59162;DHT22;44942;48.936;8.260;2022-10-31T09:04:35;21.20;59.40
59162;DHT22;44942;48.936;8.260;2022-10-31T09:09:35;21.20;59.50
59162;DHT22;44942;48.936;8.260;2022-10-31T09:14:36;21.20;59.50
59162;DHT22;44942;48.936;8.260;2022-10-31T09:19:36;21.20;59.50
59162;DHT22;44942;48.936;8.260;2022-10-31T09:24:37;21.20;59.60
59162;DHT22;44942;48.936;8.260;2022-10-31T09:29:37;21.20;59.70
59162;DHT22;44942;48.936;8.260;2022-10-31T09:34:38;21.20;59.70
59162;DHT22;44942;48.936;8.260;2022-10-31T09:39:39;21.20;59.80
59162;DHT22;44942;48.936;8.260;2022-10-31T09:50:12;21.20;59.80
59162;DHT22;44942;48.936;8.260;2022-10-31T09:55:31;21.20;59.80
59162;DHT22;44942;48.936;8.260;2022-10-31T10:00:35;21.20;59.90
59162;DHT22;44942;48.936;8.260;2022-10-31T10:33:17;21.20;60.10
59162;DHT22;44942;48.936;8.260;2022-10-31T10:43:37;21.20;60.10
59162;DHT22;44942;48.936;8.260;2022-10-31T10:49:16;21.20;60.10
59162;DHT22;44942;48.936;8.260;2022-10-31T10:59:40;21.20;60.30
59162;DHT22;44942;48.936;8.260;2022-10-31T11:04:41;21.20;60.30
59162;DHT22;44942;48.936;8.260;2022-10-31T11:09:41;21.20;60.30
59162;DHT22;44942;48.936;8.260;2022-10-31T11:14:46;21.30;60.40
59162;DHT22;44942;48.936;8.260;2022-10-31T11:19:47;21.20;60.40
59162;DHT22;44942;48.936;8.260;2022-10-31T11:24:48;21.30;60.50
59162;DHT22;44942;48.936;8.260;2022-10-31T11:29:49;21.30;60.50
59162;DHT22;44942;48.936;8.260;2022-10-31T11:34:56;21.30;60.40
59162;DHT22;44942;48.936;8.260;2022-10-31T11:40:01;21.30;60.50
59162;DHT22;44942;48.936;8.260;2022-10-31T11:45:12;21.30;60.60
59162;DHT22;44942;48.936;8.260;2022-10-31T11:50:25;21.30;60.70
59162;DHT22;44942;48.936;8.260;2022-10-31T11:55:36;21.30;61.50
59162;DHT22;44942;48.936;8.260;2022-10-31T12:00:38;21.30;60.70
59162;DHT22;44942;48.936;8.260;2022-10-31T12:05:42;21.30;60.70
59162;DHT22;44942;48.936;8.260;2022-10-31T12:15:58;21.30;60.70
59162;DHT22;44942;48.936;8.260;2022-10-31T12:26:41;21.30;60.70
59162;DHT22;44942;48.936;8.260;2022-10-31T12:37:24;21.30;60.60
59162;DHT22;44942;48.936;8.260;2022-10-31T12:58:21;21.30;60.70
59162;DHT22;44942;48.936;8.260;2022-10-31T13:03:33;21.40;60.70
59162;DHT22;44942;48.936;8.260;2022-10-31T13:08:43;21.40;60.80
59162;DHT22;44942;48.936;8.260;2022-10-31T13:18:59;21.40;60.80
59162;DHT22;44942;48.936;8.260;2022-10-31T13:24:04;21.40;60.80
59162;DHT22;44942;48.936;8.260;2022-10-31T13:34:32;21.40;60.80
59162;DHT22;44942;48.936;8.260;2022-10-31T13:39:59;21.40;60.80
59162;DHT22;44942;48.936;8.260;2022-10-31T13:45:23;21.50;60.90
59162;DHT22;44942;48.936;8.260;2022-10-31T13:50:32;21.50;61.00
59162;DHT22;44942;48.936;8.260;2022-10-31T13:55:45;21.50;61.00
59162;DHT22;44942;48.936;8.260;2022-10-31T14:00:46;21.50;61.00
59162;DHT22;44942;48.936;8.260;2022-10-31T14:05:53;21.50;60.90
59162;DHT22;44942;48.936;8.260;2022-10-31T14:10:54;21.50;60.90
59162;DHT22;44942;48.936;8.260;2022-10-31T14:16:16;21.50;60.90
59162;DHT22;44942;48.936;8.260;2022-10-31T14:31:35;21.50;60.90
59162;DHT22;44942;48.936;8.260;2022-10-31T14:36:46;21.50;60.90
59162;DHT22;44942;48.936;8.260;2022-10-31T14:42:40;21.50;60.90
59162;DHT22;44942;48.936;8.260;2022-10-31T14:53:26;21.50;60.90
59162;DHT22;44942;48.936;8.260;2022-10-31T14:58:34;21.50;60.90
59162;DHT22;44942;48.936;8.260;2022-10-31T15:03:43;21.50;60.90
59162;DHT22;44942;48.936;8.260;2022-10-31T15:08:52;21.50;60.90
59162;DHT22;44942;48.936;8.260;2022-10-31T15:13:55;21.50;60.90
59162;DHT22;44942;48.936;8.260;2022-10-31T15:18:58;21.50;60.90
59162;DHT22;44942;48.936;8.260;2022-10-31T15:24:01;21.50;60.90
59162;DHT22;44942;48.936;8.260;2022-10-31T15:29:05;21.50;60.90
59162;DHT22;44942;48.936;8.260;2022-10-31T15:34:15;21.50;60.90
59162;DHT22;44942;48.936;8.260;2022-10-31T15:39:22;21.50;60.90
59162;DHT22;44942;48.936;8.260;2022-10-31T15:44:30;21.50;60.80
59162;DHT22;44942;48.936;8.260;2022-10-31T15:49:39;21.50;60.80
59162;DHT22;44942;48.936;8.260;2022-10-31T15:54:48;21.50;60.80
59162;DHT22;44942;48.936;8.260;2022-10-31T15:59:52;21.50;60.80
59162;DHT22;44942;48.936;8.260;2022-10-31T16:05:00;21.50;60.80
59162;DHT22;44942;48.936;8.260;2022-10-31T16:10:03;21.50;60.80
59162;DHT22;44942;48.936;8.260;2022-10-31T16:15:05;21.50;60.90
59162;DHT22;44942;48.936;8.260;2022-10-31T16:20:07;21.50;60.80
59162;DHT22;44942;48.936;8.260;2022-10-31T16:25:17;21.50;60.80
59162;DHT22;44942;48.936;8.260;2022-10-31T16:30:41;21.50;60.90
59162;DHT22;44942;48.936;8.260;2022-10-31T16:35:42;21.50;60.80
59162;DHT22;44942;48.936;8.260;2022-10-31T16:40:43;21.50;60.90
59162;DHT22;44942;48.936;8.260;2022-10-31T16:45:51;21.50;60.90
59162;DHT22;44942;48.936;8.260;2022-10-31T16:50:52;21.50;60.90
59162;DHT22;44942;48.936;8.260;2022-10-31T16:55:58;21.50;61.00
59162;DHT22;44942;48.936;8.260;2022-10-31T17:01:01;21.50;61.00
59162;DHT22;44942;48.936;8.260;2022-10-31T17:06:01;21.50;61.00
59162;DHT22;44942;48.936;8.260;2022-10-31T17:11:03;21.60;61.10
59162;DHT22;44942;48.936;8.260;2022-10-31T17:16:04;21.60;61.00
59162;DHT22;44942;48.936;8.260;2022-10-31T17:21:05;21.60;61.10
59162;DHT22;44942;48.936;8.260;2022-10-31T17:26:06;21.60;61.10
59162;DHT22;44942;48.936;8.260;2022-10-31T17:31:19;21.50;61.00
59162;DHT22;44942;48.936;8.260;2022-10-31T17:36:20;21.50;61.00
59162;DHT22;44942;48.936;8.260;2022-10-31T17:41:21;21.60;61.10
59162;DHT22;44942;48.936;8.260;2022-10-31T17:46:21;21.50;61.10
59162;DHT22;44942;48.936;8.260;2022-10-31T17:51:22;21.60;61.10
59162;DHT22;44942;48.936;8.260;2022-10-31T17:56:23;21.50;61.10
59162;DHT22;44942;48.936;8.260;2022-10-31T18:01:23;21.60;61.20
59162;DHT22;44942;48.936;8.260;2022-10-31T18:06:24;21.60;61.30
59162;DHT22;44942;48.936;8.260;2022-10-31T18:11:25;21.60;61.30
59162;DHT22;44942;48.936;8.260;2022-10-31T18:16:25;21.60;61.40
59162;DHT22;44942;48.936;8.260;2022-10-31T18:21:27;21.60;61.30
59162;DHT22;44942;48.936;8.260;2022-10-31T18:26:28;21.60;61.40
59162;DHT22;44942;48.936;8.260;2022-10-31T18:31:28;21.60;61.40
59162;DHT22;44942;48.936;8.260;2022-10-31T18:36:29;21.60;61.40
59162;DHT22;44942;48.936;8.260;2022-10-31T18:41:29;21.60;61.40
59162;DHT22;44942;48.936;8.260;2022-10-31T18:46:30;21.60;61.50
59162;DHT22;44942;48.936;8.260;2022-10-31T18:51:31;21.60;61.50
59162;DHT22;44942;48.936;8.260;2022-10-31T18:56:31;21.70;61.60
59162;DHT22;44942;48.936;8.260;2022-10-31T19:01:32;21.60;61.60
59162;DHT22;44942;48.936;8.260;2022-10-31T19:06:33;21.70;61.60
59162;DHT22;44942;48.936;8.260;2022-10-31T19:11:34;21.70;61.60
59162;DHT22;44942;48.936;8.260;2022-10-31T19:16:35;21.70;61.60
59162;DHT22;44942;48.936;8.260;2022-10-31T19:21:36;21.70;61.70
59162;DHT22;44942;48.936;8.260;2022-10-31T19:26:36;21.70;61.70
59162;DHT22;44942;48.936;8.260;2022-10-31T19:31:37;21.70;61.70
59162;DHT22;44942;48.936;8.260;2022-10-31T19:36:38;21.70;61.70
59162;DHT22;44942;48.936;8.260;2022-10-31T19:41:38;21.70;61.70
59162;DHT22;44942;48.936;8.260;2022-10-31T19:46:39;21.70;61.70
59162;DHT22;44942;48.936;8.260;2022-10-31T19:51:43;21.70;61.90
59162;DHT22;44942;48.936;8.260;2022-10-31T19:56:44;21.80;62.00
59162;DHT22;44942;48.936;8.260;2022-10-31T20:01:47;21.80;61.90
59162;DHT22;44942;48.936;8.260;2022-10-31T20:06:47;21.80;61.90
59162;DHT22;44942;48.936;8.260;2022-10-31T20:11:48;21.80;61.90
59162;DHT22;44942;48.936;8.260;2022-10-31T20:16:52;21.80;61.90
59162;DHT22;44942;48.936;8.260;2022-10-31T20:21:53;21.80;61.80
59162;DHT22;44942;48.936;8.260;2022-10-31T20:26:53;21.90;61.80
59162;DHT22;44942;48.936;8.260;2022-10-31T20:31:54;21.80;61.80
59162;DHT22;44942;48.936;8.260;2022-10-31T20:36:56;21.90;61.80
59162;DHT22;44942;48.936;8.260;2022-10-31T20:41:57;21.90;61.80
59162;DHT22;44942;48.936;8.260;2022-10-31T20:46:57;21.90;61.80
59162;DHT22;44942;48.936;8.260;2022-10-31T20:51:58;21.90;61.70
59162;DHT22;44942;48.936;8.260;2022-10-31T20:56:59;22.00;61.70
59162;DHT22;44942;48.936;8.260;2022-10-31T21:01:59;22.00;61.70
59162;DHT22;44942;48.936;8.260;2022-10-31T21:07:00;22.00;61.70
59162;DHT22;44942;48.936;8.260;2022-10-31T21:12:00;22.10;61.60
59162;DHT22;44942;48.936;8.260;2022-10-31T21:17:02;22.00;61.50
59162;DHT22;44942;48.936;8.260;2022-10-31T21:22:02;22.00;61.40
59162;DHT22;44942;48.936;8.260;2022-10-31T21:27:03;22.00;61.40
59162;DHT22;44942;48.936;8.260;2022-10-31T21:32:03;22.10;61.40
59162;DHT22;44942;48.936;8.260;2022-10-31T21:37:04;22.00;61.40
59162;DHT22;44942;48.936;8.260;2022-10-31T21:42:05;22.10;61.50
59162;DHT22;44942;48.936;8.260;2022-10-31T21:47:05;22.10;61.40
59162;DHT22;44942;48.936;8.260;2022-10-31T21:52:06;22.10;61.50
59162;DHT22;44942;48.936;8.260;2022-10-31T21:57:07;22.10;61.60
59162;DHT22;44942;48.936;8.260;2022-10-31T22:02:10;22.10;62.30
59162;DHT22;44942;48.936;8.260;2022-10-31T22:07:11;22.10;61.50
59162;DHT22;44942;48.936;8.260;2022-10-31T22:12:15;22.10;61.50
59162;DHT22;44942;48.936;8.260;2022-10-31T22:17:15;22.10;61.50
59162;DHT22;44942;48.936;8.260;2022-10-31T22:22:16;22.10;61.40
59162;DHT22;44942;48.936;8.260;2022-10-31T22:27:16;22.10;61.40
59162;DHT22;44942;48.936;8.260;2022-10-31T22:32:17;22.10;61.50
59162;DHT22;44942;48.936;8.260;2022-10-31T22:37:18;22.20;61.50
59162;DHT22;44942;48.936;8.260;2022-10-31T22:42:18;22.10;61.40
59162;DHT22;44942;48.936;8.260;2022-10-31T22:47:19;22.10;61.40
59162;DHT22;44942;48.936;8.260;2022-10-31T22:52:19;22.20;61.40
59162;DHT22;44942;48.936;8.260;2022-10-31T22:57:20;22.10;61.40
59162;DHT22;44942;48.936;8.260;2022-10-31T23:02:20;22.20;61.50
59162;DHT22;44942;48.936;8.260;2022-10-31T23:07:21;22.10;61.40
59162;DHT22;44942;48.936;8.260;2022-10-31T23:12:21;22.20;61.40
59162;DHT22;44942;48.936;8.260;2022-10-31T23:17:41;22.20;61.50
59162;DHT22;44942;48.936;8.260;2022-10-31T23:22:41;22.20;61.50
59162;DHT22;44942;48.936;8.260;2022-10-31T23:27:42;22.20;61.60
59162;DHT22;44942;48.936;8.260;2022-10-31T23:32:42;22.10;61.50
59162;DHT22;44942;48.936;8.260;2022-10-31T23:37:43;22.20;61.50
59162;DHT22;44942;48.936;8.260;2022-10-31T23:42:44;22.20;61.50
59162;DHT22;44942;48.936;8.260;2022-10-31T23:47:44;22.20;61.50
59162;DHT22;44942;48.936;8.260;2022-10-31T23:52:45;22.20;61.50
59162;DHT22;44942;48.936;8.260;2022-10-31T23:57:45;22.20;61.50
